Time;durP1;ratioP1;P1;durP2;ratioP2;P2;SDS_P1;SDS_P2;PMS_P1;PMS_P2;Temp;Humidity;BMP_temperature;BMP_pressure;BME280_temperature;BME280_humidity;BME280_pressure;Samples;Min_cycle;Max_cycle;Signal;HPM_P1;HPM_P2
2024/02/19 00:02:12;;;;;;;14.63;13.03;;;;;;;;;;6221118;23;20173;-80
2024/02/19 00:04:38;;;;;;;15.00;13.03;;;;;;;;;;6247975;23;20161;-80
2024/02/19 00:07:08;;;;;;;15.33;13.50;;;;;;;;;;6196947;23;20256;-80
2024/02/19 00:09:37;;;;;;;15.07;12.97;;;;;;;;;;6248556;23;20192;-80
2024/02/19 00:12:04;;;;;;;16.80;13.30;;;;;;;;;;6221450;23;20644;-80
2024/02/19 00:14:31;;;;;;;15.03;13.43;;;;;;;;;;6221576;23;20603;-80
2024/02/19 00:16:58;;;;;;;14.13;12.73;;;;;;;;;;6221290;23;20205;-80
2024/02/19 00:19:26;;;;;;;14.77;13.27;;;;;;;;;;6221319;23;20171;-80
2024/02/19 00:21:53;;;;;;;13.70;12.30;;;;;;;;;;6221581;23;20168;-80
2024/02/19 00:24:22;;;;;;;14.43;12.80;;;;;;;;;;6195408;23;20554;-80
2024/02/19 00:26:54;;;;;;;14.20;12.50;;;;;;;;;;6219544;23;20175;-80
2024/02/19 00:29:21;;;;;;;14.67;13.13;;;;;;;;;;6247664;22;20188;-80
2024/02/19 00:31:49;;;;;;;15.60;13.37;;;;;;;;;;6220757;23;20251;-80
2024/02/19 00:34:23;;;;;;;15.37;13.13;;;;;;;;;;6196446;23;20660;-80
2024/02/19 00:36:50;;;;;;;13.97;12.43;;;;;;;;;;6247382;23;20211;-80
2024/02/19 00:39:17;;;;;;;17.13;13.20;;;;;;;;;;6220894;23;20169;-80
2024/02/19 00:41:44;;;;;;;13.90;12.40;;;;;;;;;;6220819;23;20179;-80
2024/02/19 00:44:10;;;;;;;14.50;12.10;;;;;;;;;;6220950;23;20188;-80
2024/02/19 00:46:37;;;;;;;13.90;12.30;;;;;;;;;;6220255;23;20171;-80
2024/02/19 00:49:04;;;;;;;14.30;12.80;;;;;;;;;;6247536;23;20157;-80
2024/02/19 00:51:34;;;;;;;13.67;12.27;;;;;;;;;;6220732;23;20256;-80
2024/02/19 00:54:00;;;;;;;14.73;13.03;;;;;;;;;;6247850;23;20189;-80
2024/02/19 00:56:31;;;;;;;14.33;12.83;;;;;;;;;;6220329;23;20195;-80
2024/02/19 00:58:58;;;;;;;14.20;12.70;;;;;;;;;;6246953;23;20153;-80
2024/02/19 01:01:27;;;;;;;15.10;12.87;;;;;;;;;;6221462;23;20157;-80
2024/02/19 01:03:58;;;;;;;15.73;13.10;;;;;;;;;;6247282;23;20244;-80
2024/02/19 01:06:26;;;;;;;14.67;13.10;;;;;;;;;;6247278;23;20245;-80
2024/02/19 01:08:59;;;;;;;15.13;12.97;;;;;;;;;;6196831;23;20168;-79
2024/02/19 01:11:27;;;;;;;17.63;13.53;;;;;;;;;;6195367;23;20667;-80
2024/02/19 01:13:58;;;;;;;15.53;13.90;;;;;;;;;;6247510;23;20173;-80
2024/02/19 01:16:25;;;;;;;17.73;15.27;;;;;;;;;;6220379;23;20188;-81
2024/02/19 01:18:54;;;;;;;16.80;14.50;;;;;;;;;;6247273;23;20184;-80
2024/02/19 01:21:21;;;;;;;16.67;14.10;;;;;;;;;;6220480;23;20179;-80
2024/02/19 01:24:00;;;;;;;16.93;14.57;;;;;;;;;;6220602;23;20219;-79
2024/02/19 01:26:27;;;;;;;18.13;15.43;;;;;;;;;;6220288;23;20172;-80
2024/02/19 01:28:53;;;;;;;19.37;16.30;;;;;;;;;;6246950;22;20619;-80
2024/02/19 01:31:21;;;;;;;19.33;15.43;;;;;;;;;;6246987;23;20160;-80
2024/02/19 01:33:49;;;;;;;16.23;14.30;;;;;;;;;;6195275;23;20243;-80
2024/02/19 01:36:17;;;;;;;17.17;14.33;;;;;;;;;;6220557;23;20216;-80
2024/02/19 01:38:48;;;;;;;16.47;14.57;;;;;;;;;;6220521;23;20172;-80
2024/02/19 01:41:18;;;;;;;15.87;13.77;;;;;;;;;;6220053;23;20219;-80
2024/02/19 01:43:44;;;;;;;14.67;12.87;;;;;;;;;;6220688;23;20145;-80
2024/02/19 01:46:15;;;;;;;15.80;13.67;;;;;;;;;;6246938;23;20161;-80
2024/02/19 01:48:42;;;;;;;16.13;13.60;;;;;;;;;;6247121;23;20592;-80
2024/02/19 01:51:09;;;;;;;14.60;13.10;;;;;;;;;;6220707;23;20607;-80
2024/02/19 01:53:36;;;;;;;15.17;13.57;;;;;;;;;;6220309;23;20195;-80
2024/02/19 01:56:07;;;;;;;15.40;13.40;;;;;;;;;;6219782;23;20171;-80
2024/02/19 01:58:38;;;;;;;14.77;13.17;;;;;;;;;;6195600;23;20168;-80
2024/02/19 02:01:06;;;;;;;15.10;13.37;;;;;;;;;;6220140;23;20165;-80
2024/02/19 02:03:35;;;;;;;15.67;13.80;;;;;;;;;;6220324;23;20168;-80
2024/02/19 02:06:06;;;;;;;14.83;13.03;;;;;;;;;;6220081;23;20225;-80
2024/02/19 02:08:39;;;;;;;15.90;13.13;;;;;;;;;;6219666;23;20745;-80
2024/02/19 02:11:07;;;;;;;14.13;12.63;;;;;;;;;;6220209;23;20244;-80
2024/02/19 02:13:38;;;;;;;12.93;11.63;;;;;;;;;;6246627;23;20587;-79
2024/02/19 02:16:06;;;;;;;13.37;12.03;;;;;;;;;;6219898;23;20200;-80
2024/02/19 02:18:35;;;;;;;13.63;12.00;;;;;;;;;;6234465;23;20153;-80
2024/02/19 02:21:02;;;;;;;13.87;12.27;;;;;;;;;;6247215;23;20167;-80
2024/02/19 02:23:31;;;;;;;13.33;11.83;;;;;;;;;;6246886;23;20165;-80
2024/02/19 02:25:57;;;;;;;13.20;11.80;;;;;;;;;;6219956;23;20181;-80
2024/02/19 02:28:24;;;;;;;13.33;11.73;;;;;;;;;;6220816;23;20161;-80
2024/02/19 02:31:00;;;;;;;14.57;12.03;;;;;;;;;;6220141;23;20211;-80
2024/02/19 02:33:29;;;;;;;13.03;11.60;;;;;;;;;;6221031;23;20555;-80
2024/02/19 02:35:56;;;;;;;12.37;11.07;;;;;;;;;;6247138;23;20157;-80
2024/02/19 02:38:24;;;;;;;12.43;11.17;;;;;;;;;;6220617;23;20193;-80
2024/02/19 02:40:53;;;;;;;13.50;12.10;;;;;;;;;;6247297;23;20165;-80
2024/02/19 02:43:21;;;;;;;11.97;10.77;;;;;;;;;;6220018;23;20176;-80
2024/02/19 02:45:48;;;;;;;12.53;11.23;;;;;;;;;;6247088;23;20161;-80
2024/02/19 02:48:19;;;;;;;12.77;10.80;;;;;;;;;;6192288;23;20593;-80
2024/02/19 02:50:46;;;;;;;12.80;11.50;;;;;;;;;;6190362;23;20170;-80
2024/02/19 02:53:18;;;;;;;12.60;11.30;;;;;;;;;;6242670;23;20168;-81
2024/02/19 02:55:47;;;;;;;11.87;10.67;;;;;;;;;;6246984;23;20153;-80
2024/02/19 02:58:17;;;;;;;11.70;10.50;;;;;;;;;;6247452;23;20177;-80
2024/02/19 03:00:44;;;;;;;13.23;11.20;;;;;;;;;;6247445;23;20161;-80
2024/02/19 03:03:11;;;;;;;12.63;11.33;;;;;;;;;;6220678;23;20172;-81
2024/02/19 03:05:38;;;;;;;12.47;11.17;;;;;;;;;;6247047;23;20176;-81
2024/02/19 03:08:06;;;;;;;12.93;11.27;;;;;;;;;;6219837;23;20249;-82
2024/02/19 03:10:36;;;;;;;12.43;11.13;;;;;;;;;;6220499;23;20268;-80
2024/02/19 03:13:03;;;;;;;12.40;11.10;;;;;;;;;;6220006;23;20161;-80
2024/02/19 03:15:34;;;;;;;12.97;11.67;;;;;;;;;;6220403;23;20165;-80
2024/02/19 03:18:01;;;;;;;11.80;10.60;;;;;;;;;;6220465;23;20256;-80
2024/02/19 03:20:34;;;;;;;12.40;11.10;;;;;;;;;;6193765;23;20177;-80
2024/02/19 03:23:04;;;;;;;12.50;10.93;;;;;;;;;;6195546;23;20161;-80
2024/02/19 03:25:30;;;;;;;12.43;11.17;;;;;;;;;;6197061;23;20189;-80
2024/02/19 03:28:00;;;;;;;13.87;11.33;;;;;;;;;;6222911;23;20232;-80
2024/02/19 03:30:32;;;;;;;13.33;11.50;;;;;;;;;;6221509;23;20196;-80
2024/02/19 03:33:01;;;;;;;12.57;11.27;;;;;;;;;;6248336;23;20161;-81
2024/02/19 03:35:30;;;;;;;13.90;11.73;;;;;;;;;;6248276;23;20175;-81
2024/02/19 03:37:56;;;;;;;13.90;12.40;;;;;;;;;;6221769;23;20184;-80
2024/02/19 03:40:26;;;;;;;13.57;12.17;;;;;;;;;;6221814;23;20248;-80
2024/02/19 03:42:58;;;;;;;13.00;11.70;;;;;;;;;;6248824;23;20669;-80
2024/02/19 03:45:25;;;;;;;13.87;12.37;;;;;;;;;;6248241;23;20244;-80
2024/02/19 03:47:54;;;;;;;13.17;11.73;;;;;;;;;;6196841;23;20608;-80
2024/02/19 03:50:23;;;;;;;13.23;11.83;;;;;;;;;;6221744;23;20169;-80
2024/02/19 03:52:55;;;;;;;12.93;11.70;;;;;;;;;;6248318;23;20207;-80
2024/02/19 03:55:27;;;;;;;13.47;12.17;;;;;;;;;;6248580;23;20220;-81
2024/02/19 03:57:57;;;;;;;13.20;11.80;;;;;;;;;;6222220;23;20181;-80
2024/02/19 04:00:24;;;;;;;12.87;11.57;;;;;;;;;;6196583;23;20177;-80
2024/02/19 04:02:51;;;;;;;13.50;12.00;;;;;;;;;;6222113;23;20161;-80
2024/02/19 04:05:19;;;;;;;13.37;11.97;;;;;;;;;;6221348;23;20484;-80
2024/02/19 04:07:46;;;;;;;12.93;11.63;;;;;;;;;;6221550;23;20169;-80
2024/02/19 04:10:17;;;;;;;13.10;11.80;;;;;;;;;;6247807;23;20604;-79
2024/02/19 04:12:49;;;;;;;12.90;11.43;;;;;;;;;;6248345;23;20157;-80
2024/02/19 04:15:16;;;;;;;12.93;11.30;;;;;;;;;;6220341;23;20200;-80
2024/02/19 04:17:43;;;;;;;13.33;11.70;;;;;;;;;;6196107;23;20193;-80
2024/02/19 04:20:13;;;;;;;12.90;11.53;;;;;;;;;;6247688;23;20172;-80
2024/02/19 04:22:42;;;;;;;12.87;11.53;;;;;;;;;;6247886;23;20187;-80
2024/02/19 04:25:14;;;;;;;13.23;11.83;;;;;;;;;;6197090;23;20616;-80
2024/02/19 04:27:42;;;;;;;13.33;12.03;;;;;;;;;;6248112;23;20561;-80
2024/02/19 04:30:10;;;;;;;12.43;11.23;;;;;;;;;;6220970;23;20185;-80
2024/02/19 04:32:37;;;;;;;13.37;11.13;;;;;;;;;;6248261;23;20165;-79
2024/02/19 04:35:04;;;;;;;12.03;10.77;;;;;;;;;;6221119;23;20177;-80
2024/02/19 04:37:31;;;;;;;11.37;10.23;;;;;;;;;;6248095;23;20185;-80
2024/02/19 04:40:02;;;;;;;13.67;11.23;;;;;;;;;;6248301;23;20164;-79
2024/02/19 04:42:29;;;;;;;11.47;10.37;;;;;;;;;;6221204;23;20177;-79
2024/02/19 04:44:56;;;;;;;12.40;11.00;;;;;;;;;;6220565;23;20165;-79
2024/02/19 04:47:23;;;;;;;11.87;10.60;;;;;;;;;;6221306;23;20157;-80
2024/02/19 04:49:49;;;;;;;12.03;10.83;;;;;;;;;;6247166;23;20161;-79
2024/02/19 04:52:18;;;;;;;12.27;11.03;;;;;;;;;;6247351;23;20160;-79
2024/02/19 04:54:48;;;;;;;12.17;10.97;;;;;;;;;;6247019;23;20153;-79
2024/02/19 04:57:16;;;;;;;11.90;10.57;;;;;;;;;;6246832;23;20191;-80
2024/02/19 04:59:43;;;;;;;11.90;10.70;;;;;;;;;;6248693;23;20240;-80
2024/02/19 05:02:10;;;;;;;10.90;9.90;;;;;;;;;;6220078;23;20196;-80
2024/02/19 05:04:37;;;;;;;11.70;10.50;;;;;;;;;;6219142;23;20259;-79
2024/02/19 05:07:07;;;;;;;11.37;10.27;;;;;;;;;;6219938;23;20168;-79
2024/02/19 05:09:34;;;;;;;10.80;9.70;;;;;;;;;;6246907;23;20157;-79
2024/02/19 05:12:04;;;;;;;10.83;9.73;;;;;;;;;;6246524;23;20188;-79
2024/02/19 05:14:31;;;;;;;12.10;10.50;;;;;;;;;;6246412;23;20173;-79
2024/02/19 05:17:01;;;;;;;12.27;10.93;;;;;;;;;;6244521;23;20184;-79
2024/02/19 05:19:31;;;;;;;11.57;10.47;;;;;;;;;;6218941;23;20161;-79
2024/02/19 05:22:02;;;;;;;11.67;10.47;;;;;;;;;;6243263;23;20188;-79
2024/02/19 05:24:29;;;;;;;11.70;10.60;;;;;;;;;;6246180;23;20149;-79
2024/02/19 05:26:56;;;;;;;13.00;11.70;;;;;;;;;;6246154;23;20165;-79
2024/02/19 05:29:24;;;;;;;12.80;11.50;;;;;;;;;;6243850;23;20220;-79
2024/02/19 05:31:51;;;;;;;11.53;10.40;;;;;;;;;;6246198;23;20240;-79
2024/02/19 05:34:28;;;;;;;12.33;11.07;;;;;;;;;;6246080;23;20145;-79
2024/02/19 05:36:54;;;;;;;12.87;11.57;;;;;;;;;;6245770;23;20165;-79
2024/02/19 05:39:21;;;;;;;12.70;11.43;;;;;;;;;;6218998;23;20203;-79
2024/02/19 05:41:48;;;;;;;13.70;11.93;;;;;;;;;;6246315;23;20165;-79
2024/02/19 05:44:15;;;;;;;13.50;12.13;;;;;;;;;;6219257;23;20165;-79
2024/02/19 05:46:43;;;;;;;14.37;12.97;;;;;;;;;;6219355;23;20164;-79
2024/02/19 05:49:12;;;;;;;13.43;12.13;;;;;;;;;;6245918;23;20227;-79
2024/02/19 05:51:44;;;;;;;13.53;12.30;;;;;;;;;;6245643;23;20161;-79
2024/02/19 05:54:11;;;;;;;14.57;13.07;;;;;;;;;;6219413;23;20149;-79
2024/02/19 05:56:41;;;;;;;13.60;12.20;;;;;;;;;;6245788;23;20196;-79
2024/02/19 05:59:09;;;;;;;14.47;12.97;;;;;;;;;;6246100;23;20181;-79
2024/02/19 06:01:35;;;;;;;15.07;13.57;;;;;;;;;;6245147;23;20168;-79
2024/02/19 06:04:03;;;;;;;14.70;13.20;;;;;;;;;;6244985;23;20171;-79
2024/02/19 06:06:31;;;;;;;14.60;13.13;;;;;;;;;;6219125;23;20172;-79
2024/02/19 06:09:02;;;;;;;14.63;13.00;;;;;;;;;;6245924;23;20161;-79
2024/02/19 06:11:31;;;;;;;15.40;13.80;;;;;;;;;;6246192;23;20664;-79
2024/02/19 06:13:58;;;;;;;14.10;12.73;;;;;;;;;;6246335;23;20241;-79
2024/02/19 06:16:33;;;;;;;15.50;13.90;;;;;;;;;;6221563;23;20636;-79
2024/02/19 06:19:03;;;;;;;14.87;13.33;;;;;;;;;;6245995;23;20184;-79
2024/02/19 06:21:30;;;;;;;13.77;12.23;;;;;;;;;;6219780;23;20165;-79
2024/02/19 06:24:04;;;;;;;13.80;12.40;;;;;;;;;;6222064;23;20153;-79
2024/02/19 06:26:34;;;;;;;15.07;12.50;;;;;;;;;;6189267;23;20177;-79
2024/02/19 06:29:03;;;;;;;14.67;12.70;;;;;;;;;;6239327;22;20167;-79
2024/02/19 06:31:35;;;;;;;14.90;13.37;;;;;;;;;;6246678;23;20148;-79
2024/02/19 06:34:03;;;;;;;15.17;13.57;;;;;;;;;;6218684;23;20252;-79
2024/02/19 06:36:29;;;;;;;13.27;11.97;;;;;;;;;;6219686;23;20196;-79
2024/02/19 06:38:56;;;;;;;14.90;13.33;;;;;;;;;;6245949;23;20181;-79
2024/02/19 06:41:24;;;;;;;14.57;13.07;;;;;;;;;;6246576;23;20161;-79
2024/02/19 06:43:53;;;;;;;14.73;13.37;;;;;;;;;;6246073;23;20172;-79
2024/02/19 06:46:22;;;;;;;14.73;13.23;;;;;;;;;;6245925;23;20224;-79
2024/02/19 06:48:53;;;;;;;14.40;12.93;;;;;;;;;;6246444;23;20177;-79
2024/02/19 06:51:20;;;;;;;15.07;13.47;;;;;;;;;;6194090;23;20171;-79
2024/02/19 06:53:47;;;;;;;14.13;12.57;;;;;;;;;;6219880;23;20173;-79
2024/02/19 06:56:15;;;;;;;13.77;12.33;;;;;;;;;;6245222;23;20215;-79
2024/02/19 06:58:45;;;;;;;13.73;12.33;;;;;;;;;;6247903;23;20173;-79
2024/02/19 07:01:15;;;;;;;14.73;12.37;;;;;;;;;;6247957;23;20165;-79
2024/02/19 07:03:42;;;;;;;13.20;11.43;;;;;;;;;;6248115;23;20160;-79
2024/02/19 07:06:10;;;;;;;12.70;11.47;;;;;;;;;;6221528;23;20221;-79
2024/02/19 07:08:36;;;;;;;12.40;11.17;;;;;;;;;;6247556;23;20169;-79
2024/02/19 07:11:04;;;;;;;12.60;11.37;;;;;;;;;;6247859;23;20194;-79
2024/02/19 07:13:31;;;;;;;13.70;12.30;;;;;;;;;;6247760;23;20607;-79
2024/02/19 07:16:00;;;;;;;13.60;12.13;;;;;;;;;;6248454;23;20180;-79
2024/02/19 07:18:27;;;;;;;13.50;12.13;;;;;;;;;;6247823;23;20184;-79
2024/02/19 07:20:59;;;;;;;11.57;10.47;;;;;;;;;;6247637;23;20643;-79
2024/02/19 07:23:28;;;;;;;11.47;10.37;;;;;;;;;;6248026;23;20568;-79
2024/02/19 07:26:03;;;;;;;11.73;10.53;;;;;;;;;;6248180;23;20164;-79
2024/02/19 07:28:35;;;;;;;10.80;9.70;;;;;;;;;;6248017;23;20142;-79
2024/02/19 07:31:04;;;;;;;12.07;10.20;;;;;;;;;;6247480;22;20196;-79
2024/02/19 07:33:33;;;;;;;10.83;9.63;;;;;;;;;;6248027;23;20168;-79
2024/02/19 07:36:04;;;;;;;10.97;9.17;;;;;;;;;;6220736;23;20175;-79
2024/02/19 07:38:31;;;;;;;9.97;8.97;;;;;;;;;;6247472;23;20207;-79
2024/02/19 07:40:59;;;;;;;10.27;9.27;;;;;;;;;;6247572;23;20160;-79
2024/02/19 07:43:30;;;;;;;11.60;9.10;;;;;;;;;;6247660;23;20623;-79
2024/02/19 07:46:00;;;;;;;9.90;8.70;;;;;;;;;;6220965;23;20215;-79
2024/02/19 07:48:30;;;;;;;8.40;7.53;;;;;;;;;;6247604;23;20604;-79
2024/02/19 07:50:57;;;;;;;8.70;7.47;;;;;;;;;;6247710;23;20240;-79
2024/02/19 07:53:23;;;;;;;8.70;7.73;;;;;;;;;;6247302;23;20229;-79
2024/02/19 07:56:04;;;;;;;8.23;7.43;;;;;;;;;;6220408;23;20163;-79
2024/02/19 07:58:31;;;;;;;8.50;7.70;;;;;;;;;;6247324;23;20192;-79
2024/02/19 08:00:59;;;;;;;8.47;7.67;;;;;;;;;;6247462;23;20165;-79
2024/02/19 08:03:31;;;;;;;8.33;7.47;;;;;;;;;;6196931;23;20686;-79
2024/02/19 08:05:58;;;;;;;9.07;8.17;;;;;;;;;;6247466;23;20156;-79
2024/02/19 08:08:25;;;;;;;7.93;7.20;;;;;;;;;;6246998;23;20231;-79
2024/02/19 08:10:55;;;;;;;8.63;7.83;;;;;;;;;;6247243;23;20165;-78
2024/02/19 08:13:26;;;;;;;9.00;8.10;;;;;;;;;;6221716;23;20180;-80
2024/02/19 08:15:55;;;;;;;9.40;8.20;;;;;;;;;;6246947;23;20235;-79
2024/02/19 08:18:29;;;;;;;8.77;7.97;;;;;;;;;;6246848;23;20181;-79
2024/02/19 08:20:56;;;;;;;8.90;8.00;;;;;;;;;;6246824;23;20153;-80
2024/02/19 08:23:23;;;;;;;8.87;8.03;;;;;;;;;;6247036;23;20215;-79
2024/02/19 08:25:52;;;;;;;8.87;7.97;;;;;;;;;;6246724;23;20236;-79
2024/02/19 08:28:21;;;;;;;8.47;7.63;;;;;;;;;;6247031;23;20165;-80
2024/02/19 08:30:48;;;;;;;8.87;7.50;;;;;;;;;;6220519;23;20193;-79
2024/02/19 08:33:15;;;;;;;8.43;7.33;;;;;;;;;;6216451;23;20166;-79
2024/02/19 08:35:41;;;;;;;8.40;7.60;;;;;;;;;;6216501;23;20174;-80
2024/02/19 08:38:12;;;;;;;7.97;7.17;;;;;;;;;;6216934;23;20192;-80
2024/02/19 08:40:39;;;;;;;8.20;7.40;;;;;;;;;;6216790;23;20220;-81
2024/02/19 08:43:10;;;;;;;7.53;6.93;;;;;;;;;;6189919;23;20216;-80
2024/02/19 08:45:38;;;;;;;7.20;6.50;;;;;;;;;;6216584;23;20165;-80
2024/02/19 08:48:05;;;;;;;7.77;7.07;;;;;;;;;;6216712;23;20172;-81
2024/02/19 08:50:33;;;;;;;7.93;7.13;;;;;;;;;;6216723;23;20184;-80
2024/02/19 08:53:01;;;;;;;9.43;7.87;;;;;;;;;;6190373;23;20165;-79
2024/02/19 08:55:31;;;;;;;8.03;7.23;;;;;;;;;;6216603;23;20169;-80
2024/02/19 08:58:03;;;;;;;7.40;6.70;;;;;;;;;;6189792;23;20196;-80
2024/02/19 09:00:39;;;;;;;10.50;9.23;;;;;;;;;;6192553;23;20205;-80
2024/02/19 09:03:13;;;;;;;9.70;8.70;;;;;;;;;;6166937;23;20230;-80
2024/02/19 09:05:44;;;;;;;6.87;6.07;;;;;;;;;;6189817;23;20179;-80
2024/02/19 09:08:12;;;;;;;6.10;5.50;;;;;;;;;;6190543;23;20601;-80
2024/02/19 09:10:40;;;;;;;33.30;25.17;;;;;;;;;;6216642;23;20165;-80
2024/02/19 09:13:07;;;;;;;26.50;21.97;;;;;;;;;;6190376;23;20177;-80
2024/02/19 09:15:34;;;;;;;29.90;25.90;;;;;;;;;;6189922;23;20178;-80
2024/02/19 09:18:04;;;;;;;16.30;12.10;;;;;;;;;;6190589;23;20173;-81
2024/02/19 09:20:34;;;;;;;17.00;13.83;;;;;;;;;;6165662;23;20202;-80
2024/02/19 09:23:06;;;;;;;8.47;7.07;;;;;;;;;;6190705;23;20171;-80
2024/02/19 09:25:41;;;;;;;11.80;9.77;;;;;;;;;;6217411;23;20154;-81
2024/02/19 09:28:10;;;;;;;49.10;37.47;;;;;;;;;;6190375;23;20193;-80
2024/02/19 09:30:37;;;;;;;9.53;8.53;;;;;;;;;;6214764;23;20209;-80
2024/02/19 09:33:06;;;;;;;10.07;9.07;;;;;;;;;;6221125;23;20186;-80
2024/02/19 09:35:36;;;;;;;7.40;6.67;;;;;;;;;;6220845;23;20156;-80
2024/02/19 09:38:03;;;;;;;6.23;5.27;;;;;;;;;;6247392;23;20170;-80
2024/02/19 09:40:35;;;;;;;5.23;4.73;;;;;;;;;;6247393;23;20157;-80
2024/02/19 09:43:05;;;;;;;4.70;4.30;;;;;;;;;;6196780;23;20244;-80
2024/02/19 09:45:37;;;;;;;3.40;3.10;;;;;;;;;;6221231;23;20233;-80
2024/02/19 09:48:10;;;;;;;4.67;3.80;;;;;;;;;;6248280;23;20150;-80
2024/02/19 09:50:43;;;;;;;2.40;1.60;;;;;;;;;;6248085;23;20157;-80
2024/02/19 09:53:11;;;;;;;1.70;1.10;;;;;;;;;;6222015;23;20157;-80
2024/02/19 09:55:38;;;;;;;1.67;0.80;;;;;;;;;;6221040;23;20183;-81
2024/02/19 09:58:10;;;;;;;0.40;0.40;;;;;;;;;;6248108;23;20150;-80
2024/02/19 10:00:38;;;;;;;0.20;0.20;;;;;;;;;;6245641;23;20191;-80
2024/02/19 10:03:07;;;;;;;0.27;0.20;;;;;;;;;;6246938;23;20167;-80
2024/02/19 10:05:41;;;;;;;0.20;0.20;;;;;;;;;;6248017;23;20172;-80
2024/02/19 10:08:12;;;;;;;0.83;0.10;;;;;;;;;;6247506;23;20159;-80
2024/02/19 10:10:41;;;;;;;0.20;0.20;;;;;;;;;;6220484;23;20168;-80
2024/02/19 10:13:15;;;;;;;0.20;0.10;;;;;;;;;;6246960;23;20199;-80
2024/02/19 10:15:50;;;;;;;0.10;0.10;;;;;;;;;;6247638;23;20151;-80
2024/02/19 10:18:19;;;;;;;0.20;0.20;;;;;;;;;;6220092;23;20169;-79
2024/02/19 10:20:53;;;;;;;0.67;0.20;;;;;;;;;;6247422;23;20227;-80
2024/02/19 10:23:23;;;;;;;0.10;0.10;;;;;;;;;;6247660;23;20172;-80
2024/02/19 10:25:53;;;;;;;0.00;0.00;;;;;;;;;;6247909;23;20192;-80
2024/02/19 10:28:22;;;;;;;0.27;0.20;;;;;;;;;;6248099;23;20163;-80
2024/02/19 10:30:50;;;;;;;0.17;0.13;;;;;;;;;;6247170;22;20690;-80
2024/02/19 10:33:19;;;;;;;0.10;0.10;;;;;;;;;;6249448;23;20144;-80
2024/02/19 10:35:50;;;;;;;0.30;0.20;;;;;;;;;;6222646;23;20172;-80
2024/02/19 10:38:17;;;;;;;0.30;0.20;;;;;;;;;;6249902;23;20165;-80
2024/02/19 10:40:44;;;;;;;0.27;0.17;;;;;;;;;;6222436;23;20196;-80
2024/02/19 10:43:20;;;;;;;0.10;0.10;;;;;;;;;;6221432;23;20188;-80
2024/02/19 10:45:52;;;;;;;0.10;0.10;;;;;;;;;;6249905;23;20156;-80
2024/02/19 10:48:20;;;;;;;0.20;0.20;;;;;;;;;;6249384;23;20600;-80
2024/02/19 10:51:02;;;;;;;0.43;0.20;;;;;;;;;;6222583;23;20237;-80
2024/02/19 10:53:32;;;;;;;0.20;0.20;;;;;;;;;;6249859;23;20158;-80
2024/02/19 10:56:31;;;;;;;0.27;0.23;;;;;;;;;;6249855;23;20165;-80
2024/02/19 10:59:08;;;;;;;0.20;0.20;;;;;;;;;;6204183;23;20220;-80
2024/02/19 11:01:44;;;;;;;0.10;0.10;;;;;;;;;;6250286;23;20155;-79
2024/02/19 11:04:17;;;;;;;0.20;0.20;;;;;;;;;;6250530;23;20154;-80
2024/02/19 11:06:48;;;;;;;0.20;0.20;;;;;;;;;;6223059;23;20164;-80
2024/02/19 11:09:17;;;;;;;0.20;0.20;;;;;;;;;;6250247;23;20154;-80
2024/02/19 11:11:56;;;;;;;0.20;0.20;;;;;;;;;;6250176;23;20160;-80
2024/02/19 11:14:27;;;;;;;0.33;0.20;;;;;;;;;;6224015;23;20160;-79
2024/02/19 11:16:56;;;;;;;0.97;0.30;;;;;;;;;;6250802;23;20196;-80
2024/02/19 11:19:24;;;;;;;0.20;0.20;;;;;;;;;;6250186;23;20188;-80
2024/02/19 11:22:01;;;;;;;0.20;0.20;;;;;;;;;;6249863;23;20161;-80
2024/02/19 11:24:33;;;;;;;0.30;0.30;;;;;;;;;;6249593;23;20195;-80
2024/02/19 11:27:05;;;;;;;0.30;0.30;;;;;;;;;;6248964;23;20181;-80
2024/02/19 11:29:34;;;;;;;0.33;0.30;;;;;;;;;;6248513;22;20196;-80
2024/02/19 11:32:19;;;;;;;0.20;0.20;;;;;;;;;;6249627;23;20156;-80
2024/02/19 11:34:49;;;;;;;0.30;0.30;;;;;;;;;;6249132;23;20182;-80
2024/02/19 11:37:18;;;;;;;0.40;0.40;;;;;;;;;;6222864;23;20246;-80
2024/02/19 11:39:52;;;;;;;0.70;0.47;;;;;;;;;;6249103;23;20222;-80
2024/02/19 11:42:19;;;;;;;0.40;0.40;;;;;;;;;;6248859;23;20159;-80
2024/02/19 11:44:47;;;;;;;0.30;0.30;;;;;;;;;;6248516;23;20161;-80
2024/02/19 11:47:13;;;;;;;0.40;0.40;;;;;;;;;;6222764;23;20170;-80
2024/02/19 11:49:45;;;;;;;0.77;0.50;;;;;;;;;;6249204;23;20187;-80
2024/02/19 11:52:14;;;;;;;0.50;0.30;;;;;;;;;;6198127;23;20592;-80
2024/02/19 11:54:53;;;;;;;0.40;0.40;;;;;;;;;;6248786;23;20164;-80
2024/02/19 11:57:22;;;;;;;1.03;0.40;;;;;;;;;;6222381;23;20171;-80
2024/02/19 11:59:55;;;;;;;0.80;0.33;;;;;;;;;;6249427;23;20175;-80
2024/02/19 12:02:30;;;;;;;1.03;0.50;;;;;;;;;;6249303;23;20160;-80
2024/02/19 12:04:58;;;;;;;0.30;0.30;;;;;;;;;;6222513;23;20256;-80
2024/02/19 12:07:25;;;;;;;0.30;0.30;;;;;;;;;;6249069;23;20168;-80
2024/02/19 12:09:52;;;;;;;2.00;0.60;;;;;;;;;;6249593;23;20697;-80
2024/02/19 12:12:33;;;;;;;0.60;0.53;;;;;;;;;;6199959;23;20175;-80
2024/02/19 12:14:59;;;;;;;0.40;0.40;;;;;;;;;;6249697;23;20157;-80
2024/02/19 12:17:31;;;;;;;0.20;0.20;;;;;;;;;;6222797;23;20242;-80
2024/02/19 12:19:59;;;;;;;0.43;0.40;;;;;;;;;;6222397;23;20204;-80
2024/02/19 12:22:26;;;;;;;0.97;0.30;;;;;;;;;;6249105;23;20169;-80
2024/02/19 12:24:58;;;;;;;0.30;0.30;;;;;;;;;;6248881;23;20178;-80
2024/02/19 12:27:28;;;;;;;0.30;0.30;;;;;;;;;;6222837;23;20168;-83
2024/02/19 12:29:57;;;;;;;0.50;0.50;;;;;;;;;;6233160;22;20211;-80
2024/02/19 12:32:28;;;;;;;0.43;0.43;;;;;;;;;;6218562;23;20240;-81
2024/02/19 12:35:02;;;;;;;0.90;0.40;;;;;;;;;;6219231;23;20162;-80
2024/02/19 12:37:30;;;;;;;0.90;0.50;;;;;;;;;;6192560;23;20622;-81
2024/02/19 12:39:57;;;;;;;0.30;0.30;;;;;;;;;;6192112;23;20219;-80
2024/02/19 12:42:24;;;;;;;0.80;0.37;;;;;;;;;;6191817;23;20183;-80
2024/02/19 12:44:55;;;;;;;0.37;0.27;;;;;;;;;;6218771;23;20162;-80
2024/02/19 12:47:23;;;;;;;0.73;0.40;;;;;;;;;;6192431;23;20255;-80
2024/02/19 12:49:56;;;;;;;0.57;0.40;;;;;;;;;;6219241;23;20158;-80
2024/02/19 12:52:27;;;;;;;1.27;0.43;;;;;;;;;;6218550;23;20195;-80
2024/02/19 12:54:57;;;;;;;0.60;0.40;;;;;;;;;;6192744;23;20171;-78
2024/02/19 12:57:25;;;;;;;1.13;0.30;;;;;;;;;;6190813;23;20172;-82
2024/02/19 12:59:53;;;;;;;0.33;0.30;;;;;;;;;;6191044;23;20196;-80
2024/02/19 13:02:22;;;;;;;0.97;0.33;;;;;;;;;;6217039;23;20153;-80
2024/02/19 13:04:49;;;;;;;0.93;0.40;;;;;;;;;;6217973;23;20160;-80
2024/02/19 13:07:16;;;;;;;0.40;0.30;;;;;;;;;;6217519;23;20232;-80
2024/02/19 13:09:43;;;;;;;1.90;0.30;;;;;;;;;;6217359;23;20159;-79
2024/02/19 13:12:13;;;;;;;0.93;0.40;;;;;;;;;;6190909;23;20168;-79
2024/02/19 13:14:45;;;;;;;0.83;0.40;;;;;;;;;;6191808;23;20181;-79
2024/02/19 13:17:18;;;;;;;0.40;0.40;;;;;;;;;;6217794;23;20227;-79
2024/02/19 13:19:54;;;;;;;0.50;0.40;;;;;;;;;;6191605;23;20710;-79
2024/02/19 13:22:21;;;;;;;0.67;0.30;;;;;;;;;;6191156;23;20626;-79
2024/02/19 13:24:54;;;;;;;1.60;0.40;;;;;;;;;;6216859;23;20171;-79
2024/02/19 13:27:23;;;;;;;0.30;0.30;;;;;;;;;;6217021;23;20164;-79
2024/02/19 13:29:52;;;;;;;0.70;0.40;;;;;;;;;;6231100;23;20190;-78
2024/02/19 13:32:20;;;;;;;0.73;0.50;;;;;;;;;;6247859;23;20163;-79
2024/02/19 13:34:47;;;;;;;0.77;0.53;;;;;;;;;;6195072;23;20171;-79
2024/02/19 13:37:18;;;;;;;0.57;0.50;;;;;;;;;;6220489;23;20167;-79
2024/02/19 13:39:44;;;;;;;0.63;0.40;;;;;;;;;;6247272;23;20186;-79
2024/02/19 13:42:14;;;;;;;0.50;0.50;;;;;;;;;;6221825;23;20162;-79
2024/02/19 13:44:41;;;;;;;0.50;0.50;;;;;;;;;;6247206;23;20158;-80
2024/02/19 13:47:10;;;;;;;0.50;0.50;;;;;;;;;;6247540;23;20161;-78
2024/02/19 13:49:37;;;;;;;0.70;0.50;;;;;;;;;;6247379;23;20233;-79
2024/02/19 13:52:10;;;;;;;0.50;0.50;;;;;;;;;;6222126;23;20157;-79
2024/02/19 13:54:44;;;;;;;0.37;0.37;;;;;;;;;;6220604;23;20162;-79
2024/02/19 13:57:13;;;;;;;1.33;0.40;;;;;;;;;;6222049;23;20157;-80
2024/02/19 13:59:40;;;;;;;0.50;0.50;;;;;;;;;;6220153;23;20183;-79
2024/02/19 14:02:06;;;;;;;0.40;0.40;;;;;;;;;;6220675;23;20247;-78
2024/02/19 14:04:33;;;;;;;1.03;0.50;;;;;;;;;;6195199;23;20170;-79
2024/02/19 14:07:04;;;;;;;0.63;0.50;;;;;;;;;;6219717;23;20154;-79
2024/02/19 14:09:35;;;;;;;0.87;0.60;;;;;;;;;;6220361;23;20173;-79
2024/02/19 14:12:02;;;;;;;0.77;0.53;;;;;;;;;;6220241;23;20237;-80
2024/02/19 14:14:32;;;;;;;0.50;0.50;;;;;;;;;;6247009;23;20166;-79
2024/02/19 14:17:00;;;;;;;0.60;0.50;;;;;;;;;;6247103;23;20181;-79
2024/02/19 14:19:29;;;;;;;0.53;0.40;;;;;;;;;;6221157;23;20169;-79
2024/02/19 14:21:56;;;;;;;0.80;0.60;;;;;;;;;;6247127;23;20179;-79
2024/02/19 14:24:23;;;;;;;0.97;0.60;;;;;;;;;;6220641;23;20243;-79
2024/02/19 14:26:52;;;;;;;0.53;0.43;;;;;;;;;;6220786;23;20175;-79
2024/02/19 14:29:19;;;;;;;1.03;0.60;;;;;;;;;;6246839;23;20222;-79
2024/02/19 14:31:52;;;;;;;1.67;0.77;;;;;;;;;;6220958;23;20172;-79
2024/02/19 14:34:19;;;;;;;0.77;0.47;;;;;;;;;;6220530;23;20166;-79
2024/02/19 14:36:49;;;;;;;1.10;1.00;;;;;;;;;;6195739;23;20167;-79
2024/02/19 14:39:22;;;;;;;1.20;0.53;;;;;;;;;;6221200;23;20154;-79
2024/02/19 14:41:52;;;;;;;1.33;0.63;;;;;;;;;;6247108;23;20216;-79